Helliar — 2EPP5 — position and weather

sailwx.info

Track history (hours):
 
Tides and Currents Weather Stations Pressure Air Temp Water Temp Dewpoint Dewpoint Depression Visibility Wind Speed Wind Dir Waves Ship Positions

Helliar

Last reported at 2016-Jul-23 18:34 UTC. Time now 2016-Jul-24 22:22 UTC.
Position N 57°32' W 001°38'.

Length 122 m; draft 5.1 m.

Type: Cargo ship. MMSI: 235087119.

Date/timePositionNaut miles runAvg speedWind from/ knotsBaromVisibWave heightAir tempDewpointWater temp
2016-Jul-23 18:34N 57°32' W 001°38'2813.7
2016-Jul-23 16:33N 57°08' W 002°04'1 0.6
2016-Jul-23 15:32N 57°09' W 002°05'0 0.0
2016-Jul-23 14:32N 57°09' W 002°05'0 0.0
2016-Jul-23 13:32N 57°09' W 002°05'0 0.0
2016-Jul-23 12:32N 57°09' W 002°05'0 0.0
2016-Jul-23 11:32N 57°09' W 002°05'0 0.0
2016-Jul-23 10:32N 57°09' W 002°05'0 0.0
2016-Jul-23 09:32N 57°09' W 002°05'0 0.0
2016-Jul-23 08:32N 57°09' W 002°05'0 0.0
2016-Jul-23 07:32N 57°09' W 002°05'0 0.2
2016-Jul-23 06:33N 57°09' W 002°05'2311.4
2016-Jul-23 04:32N 57°27' W 001°38'6 0.2
2016-Jul-21 18:32N 57°33' W 001°38'2814.1
2016-Jul-21 16:32N 57°09' W 002°05'0 0.4
2016-Jul-21 15:32N 57°09' W 002°05'0 0.0
2016-Jul-21 14:29N 57°09' W 002°05'0 0.0
2016-Jul-21 13:26N 57°09' W 002°05'0 0.0
2016-Jul-21 12:32N 57°09' W 002°05'0 0.0
2016-Jul-21 11:17N 57°09' W 002°05'0 0.0
2016-Jul-21 10:26N 57°09' W 002°05'0 0.0
2016-Jul-21 09:26N 57°09' W 002°05'0 0.0
2016-Jul-21 08:32N 57°09' W 002°05'0 0.0
2016-Jul-21 07:29N 57°09' W 002°05'0 0.1
2016-Jul-21 06:33N 57°09' W 002°05'2210.9
2016-Jul-21 04:33N 57°25' W 001°40'1312.5
2016-Jul-21 03:33N 57°38' W 001°35'117 4.9
2016-Jul-20 03:33N 59°35' W 001°12'12313.5
2016-Jul-19 18:29N 57°33' W 001°38'2814.4
2016-Jul-19 16:32N 57°09' W 002°05'0 0.3
2016-Jul-19 15:33N 57°09' W 002°05'0 0.0
2016-Jul-19 14:30N 57°09' W 002°05'0 0.0
2016-Jul-19 13:33N 57°09' W 002°05'0 0.0
2016-Jul-19 12:33N 57°09' W 002°05'0 0.0
2016-Jul-19 11:33N 57°09' W 002°05'0 0.0
2016-Jul-19 10:33N 57°09' W 002°05'0 0.0
2016-Jul-19 09:33N 57°09' W 002°05'0 0.0
2016-Jul-19 08:33N 57°09' W 002°05'0 0.0
2016-Jul-19 07:30N 57°09' W 002°05'0 0.2
2016-Jul-19 04:34N 57°08' W 002°04'2311.5
2016-Jul-19 02:33N 57°27' W 001°39'9411.7
2016-Jul-18 18:33N 58°56' W 002°37'1211.7
2016-Jul-18 17:33N 58°60' W 002°58'0 0.2
2016-Jul-18 16:32N 58°60' W 002°58'0 0.0
2016-Jul-18 15:32N 58°60' W 002°58'0 0.0
2016-Jul-18 14:32N 58°60' W 002°58'0 0.0
2016-Jul-18 13:32N 58°60' W 002°58'0 0.0
2016-Jul-18 12:32N 58°60' W 002°58'0 0.0
2016-Jul-18 11:32N 58°60' W 002°58'0 0.0
2016-Jul-18 10:32N 58°60' W 002°58'0 0.0
2016-Jul-18 09:32N 58°60' W 002°58'0 0.0
2016-Jul-18 08:32N 58°60' W 002°58'0 0.0
2016-Jul-18 07:32N 58°60' W 002°58'0 0.0
2016-Jul-18 06:32N 58°60' W 002°58'0 0.0
2016-Jul-18 05:32N 58°60' W 002°58'0 0.0
2016-Jul-18 04:32N 58°60' W 002°58'0 0.0
2016-Jul-18 03:32N 58°60' W 002°58'0 0.0
2016-Jul-18 02:32N 58°60' W 002°58'0 0.0
2016-Jul-18 01:32N 58°60' W 002°58'0 0.0
2016-Jul-18 00:32N 58°60' W 002°58'0 0.0
2016-Jul-17 23:32N 58°60' W 002°58'1 1.0
2016-Jul-17 22:33N 59°01' W 002°58'1210.5
2016-Jul-17 21:27N 58°56' W 002°37'8413.7
2016-Jul-17 15:17N 57°36' W 001°44'1114.4
2016-Jul-17 14:34N 57°26' W 001°43'2014.2
2016-Jul-17 13:09N 57°09' W 002°03'1 1.1
2016-Jul-17 12:10N 57°09' W 002°05'0 0.0
2016-Jul-17 06:33N 57°09' W 002°05'2311.5
2016-Jul-17 04:33N 57°27' W 001°40'1111.3
2016-Jul-17 03:33N 57°38' W 001°43'7513.9
2016-Jul-16 22:08N 58°49' W 002°33'1015.1
2016-Jul-16 21:27N 58°58' W 002°41'910.2
2016-Jul-16 20:31N 58°60' W 002°58'3 2.8
2016-Jul-16 19:33N 59°01' W 002°54'1312.8
2016-Jul-16 18:33N 59°02' W 002°29'1 0.1
2016-Jul-16 02:31N 59°03' W 002°29'1212.8
2016-Jul-16 01:33N 59°01' W 002°52'3 3.2
2016-Jul-16 00:33N 58°60' W 002°58'8 8.4
2016-Jul-15 23:33N 58°60' W 002°42'1313.3
2016-Jul-15 22:33N 58°48' W 002°32'7614.1
2016-Jul-15 17:10N 57°36' W 001°43'914.8
2016-Jul-15 16:33N 57°27' W 001°43'2214.8
2016-Jul-15 15:05N 57°08' W 002°04'1 0.3
2016-Jul-15 13:18N 57°09' W 002°05'0 0.0
2016-Jul-15 10:27N 57°09' W 002°05'0 0.0
2016-Jul-15 09:33N 57°09' W 002°05'0 0.0
2016-Jul-15 08:33N 57°09' W 002°05'0 0.0
2016-Jul-15 07:33N 57°09' W 002°05'0 0.0
2016-Jul-15 06:33N 57°09' W 002°05'2211.0
2016-Jul-15 04:33N 57°26' W 001°41'1211.9
2016-Jul-15 03:33N 57°38' W 001°36'88 3.5
2016-Jul-14 02:29N 59°00' W 002°37'1111.6
2016-Jul-14 01:32N 58°60' W 002°58'0 0.1
2016-Jul-14 00:34N 58°60' W 002°58'1211.4
2016-Jul-13 23:33N 58°57' W 002°37'1814.5
2016-Jul-13 22:18N 58°39' W 002°26'  
Track history (hours):
 
Tides and Currents Weather Stations Pressure Air Temp Water Temp Dewpoint Dewpoint Depression Visibility Wind Speed Wind Dir Waves Ship Positions

Helliar

Last reported at 2016-Jul-23 18:34 UTC. Time now 2016-Jul-24 22:22 UTC.
Position N 57°32' W 001°38'.

Length 122 m; draft 5.1 m.

Type: Cargo ship. MMSI: 235087119.

Date/timePositionNaut miles runAvg speedWind from/ knotsBaromVisibWave heightAir tempDewpointWater temp
2016-Jul-23 18:34N 57°32' W 001°38'2813.7
2016-Jul-23 16:33N 57°08' W 002°04'1 0.6
2016-Jul-23 15:32N 57°09' W 002°05'0 0.0
2016-Jul-23 14:32N 57°09' W 002°05'0 0.0
2016-Jul-23 13:32N 57°09' W 002°05'0 0.0
2016-Jul-23 12:32N 57°09' W 002°05'0 0.0
2016-Jul-23 11:32N 57°09' W 002°05'0 0.0
2016-Jul-23 10:32N 57°09' W 002°05'0 0.0
2016-Jul-23 09:32N 57°09' W 002°05'0 0.0
2016-Jul-23 08:32N 57°09' W 002°05'0 0.0
2016-Jul-23 07:32N 57°09' W 002°05'0 0.2
2016-Jul-23 06:33N 57°09' W 002°05'2311.4
2016-Jul-23 04:32N 57°27' W 001°38'6 0.2
2016-Jul-21 18:32N 57°33' W 001°38'2814.1
2016-Jul-21 16:32N 57°09' W 002°05'0 0.4
2016-Jul-21 15:32N 57°09' W 002°05'0 0.0
2016-Jul-21 14:29N 57°09' W 002°05'0 0.0
2016-Jul-21 13:26N 57°09' W 002°05'0 0.0
2016-Jul-21 12:32N 57°09' W 002°05'0 0.0
2016-Jul-21 11:17N 57°09' W 002°05'0 0.0
2016-Jul-21 10:26N 57°09' W 002°05'0 0.0
2016-Jul-21 09:26N 57°09' W 002°05'0 0.0
2016-Jul-21 08:32N 57°09' W 002°05'0 0.0
2016-Jul-21 07:29N 57°09' W 002°05'0 0.1
2016-Jul-21 06:33N 57°09' W 002°05'2210.9
2016-Jul-21 04:33N 57°25' W 001°40'1312.5
2016-Jul-21 03:33N 57°38' W 001°35'117 4.9
2016-Jul-20 03:33N 59°35' W 001°12'12313.5
2016-Jul-19 18:29N 57°33' W 001°38'2814.4
2016-Jul-19 16:32N 57°09' W 002°05'0 0.3
2016-Jul-19 15:33N 57°09' W 002°05'0 0.0
2016-Jul-19 14:30N 57°09' W 002°05'0 0.0
2016-Jul-19 13:33N 57°09' W 002°05'0 0.0
2016-Jul-19 12:33N 57°09' W 002°05'0 0.0
2016-Jul-19 11:33N 57°09' W 002°05'0 0.0
2016-Jul-19 10:33N 57°09' W 002°05'0 0.0
2016-Jul-19 09:33N 57°09' W 002°05'0 0.0
2016-Jul-19 08:33N 57°09' W 002°05'0 0.0
2016-Jul-19 07:30N 57°09' W 002°05'0 0.2
2016-Jul-19 04:34N 57°08' W 002°04'2311.5
2016-Jul-19 02:33N 57°27' W 001°39'9411.7
2016-Jul-18 18:33N 58°56' W 002°37'1211.7
2016-Jul-18 17:33N 58°60' W 002°58'0 0.2
2016-Jul-18 16:32N 58°60' W 002°58'0 0.0
2016-Jul-18 15:32N 58°60' W 002°58'0 0.0
2016-Jul-18 14:32N 58°60' W 002°58'0 0.0
2016-Jul-18 13:32N 58°60' W 002°58'0 0.0
2016-Jul-18 12:32N 58°60' W 002°58'0 0.0
2016-Jul-18 11:32N 58°60' W 002°58'0 0.0
2016-Jul-18 10:32N 58°60' W 002°58'0 0.0
2016-Jul-18 09:32N 58°60' W 002°58'0 0.0
2016-Jul-18 08:32N 58°60' W 002°58'0 0.0
2016-Jul-18 07:32N 58°60' W 002°58'0 0.0
2016-Jul-18 06:32N 58°60' W 002°58'0 0.0
2016-Jul-18 05:32N 58°60' W 002°58'0 0.0
2016-Jul-18 04:32N 58°60' W 002°58'0 0.0
2016-Jul-18 03:32N 58°60' W 002°58'0 0.0
2016-Jul-18 02:32N 58°60' W 002°58'0 0.0
2016-Jul-18 01:32N 58°60' W 002°58'0 0.0
2016-Jul-18 00:32N 58°60' W 002°58'0 0.0
2016-Jul-17 23:32N 58°60' W 002°58'1 1.0
2016-Jul-17 22:33N 59°01' W 002°58'1210.5
2016-Jul-17 21:27N 58°56' W 002°37'8413.7
2016-Jul-17 15:17N 57°36' W 001°44'1114.4
2016-Jul-17 14:34N 57°26' W 001°43'2014.2
2016-Jul-17 13:09N 57°09' W 002°03'1 1.1
2016-Jul-17 12:10N 57°09' W 002°05'0 0.0
2016-Jul-17 06:33N 57°09' W 002°05'2311.5
2016-Jul-17 04:33N 57°27' W 001°40'1111.3
2016-Jul-17 03:33N 57°38' W 001°43'7513.9
2016-Jul-16 22:08N 58°49' W 002°33'1015.1
2016-Jul-16 21:27N 58°58' W 002°41'910.2
2016-Jul-16 20:31N 58°60' W 002°58'3 2.8
2016-Jul-16 19:33N 59°01' W 002°54'1312.8
2016-Jul-16 18:33N 59°02' W 002°29'1 0.1
2016-Jul-16 02:31N 59°03' W 002°29'1212.8
2016-Jul-16 01:33N 59°01' W 002°52'3 3.2
2016-Jul-16 00:33N 58°60' W 002°58'8 8.4
2016-Jul-15 23:33N 58°60' W 002°42'1313.3
2016-Jul-15 22:33N 58°48' W 002°32'7614.1
2016-Jul-15 17:10N 57°36' W 001°43'914.8
2016-Jul-15 16:33N 57°27' W 001°43'2214.8
2016-Jul-15 15:05N 57°08' W 002°04'1 0.3
2016-Jul-15 13:18N 57°09' W 002°05'0 0.0
2016-Jul-15 10:27N 57°09' W 002°05'0 0.0
2016-Jul-15 09:33N 57°09' W 002°05'0 0.0
2016-Jul-15 08:33N 57°09' W 002°05'0 0.0
2016-Jul-15 07:33N 57°09' W 002°05'0 0.0
2016-Jul-15 06:33N 57°09' W 002°05'2211.0
2016-Jul-15 04:33N 57°26' W 001°41'1211.9
2016-Jul-15 03:33N 57°38' W 001°36'88 3.5
2016-Jul-14 02:29N 59°00' W 002°37'1111.6
2016-Jul-14 01:32N 58°60' W 002°58'0 0.1
2016-Jul-14 00:34N 58°60' W 002°58'1211.4
2016-Jul-13 23:33N 58°57' W 002°37'1814.5
2016-Jul-13 22:18N 58°39' W 002°26'  

Dump ship's entire track history